Time;durP1;ratioP1;P1;durP2;ratioP2;P2;SDS_P1;SDS_P2;PMS_P1;PMS_P2;Temp;Humidity;BMP_temperature;BMP_pressure;BME280_temperature;BME280_humidity;BME280_pressure;Samples;Min_cycle;Max_cycle;Signal;HPM_P1;HPM_P2
2022/06/16 00:01:57;;;;;;;0.50;0.30;;;;;;;19.69;77.00;100150.75;5063915;28;20447;-52
2022/06/16 00:04:25;;;;;;;0.50;0.30;;;;;;;19.66;77.63;100145.56;5062434;28;20458;-52
2022/06/16 00:06:53;;;;;;;0.70;0.70;;;;;;;19.47;77.55;100140.53;5058166;28;20489;-52
2022/06/16 00:09:20;;;;;;;2.00;2.00;;;;;;;19.15;78.24;100133.72;5055649;28;20529;-52
2022/06/16 00:11:47;;;;;;;17.33;0.87;;;;;;;19.01;79.53;100134.66;5055994;28;20811;-52
2022/06/16 00:14:13;;;;;;;1.10;1.10;;;;;;;18.61;81.22;100139.91;5056507;28;20995;-53
2022/06/16 00:16:40;;;;;;;0.50;0.30;;;;;;;19.30;78.28;100132.72;5067023;28;20447;-54
2022/06/16 00:19:07;;;;;;;0.53;0.40;;;;;;;19.06;79.06;100127.16;5066412;28;20501;-53
2022/06/16 00:21:34;;;;;;;1.47;0.77;;;;;;;18.99;78.96;100109.66;5068649;28;20446;-53
2022/06/16 00:24:00;;;;;;;2.73;0.97;;;;;;;19.18;78.39;100114.66;5067835;28;20449;-52
2022/06/16 00:26:28;;;;;;;0.43;0.30;;;;;;;19.23;77.68;100108.00;5061624;28;20913;-52
2022/06/16 00:28:55;;;;;;;0.60;0.50;;;;;;;18.84;79.65;100103.44;5061540;28;20528;-56
2022/06/16 00:31:25;;;;;;;1.13;0.90;;;;;;;18.95;79.29;100113.50;5049937;28;20445;-54
2022/06/16 00:33:52;;;;;;;0.50;0.30;;;;;;;18.97;78.95;100103.50;5061746;28;20446;-52
2022/06/16 00:36:19;;;;;;;0.80;0.80;;;;;;;18.83;79.07;100117.00;5067039;28;20500;-52
2022/06/16 00:38:46;;;;;;;0.60;0.60;;;;;;;18.83;79.56;100120.56;5055985;28;20470;-52
2022/06/16 00:41:13;;;;;;;0.40;0.20;;;;;;;18.76;79.96;100129.13;5063658;28;20460;-52
2022/06/16 00:43:40;;;;;;;1.30;1.20;;;;;;;18.62;80.18;100128.16;5060008;28;20801;-56
2022/06/16 00:46:18;;;;;;;0.50;0.40;;;;;;;18.16;82.14;100126.69;5058176;28;20498;-52
2022/06/16 00:48:50;;;;;;;0.50;0.40;;;;;;;18.41;81.24;100120.63;5061236;28;21064;-52
2022/06/16 00:51:37;;;;;;;0.50;0.30;;;;;;;18.42;80.96;100120.50;5064101;28;20447;-51
2022/06/16 00:54:19;;;;;;;0.70;0.70;;;;;;;18.31;81.08;100118.50;5058491;28;20485;-52
2022/06/16 00:56:52;;;;;;;0.53;0.50;;;;;;;18.50;80.89;100122.69;5061233;28;20489;-53
2022/06/16 00:59:20;;;;;;;2.70;2.60;;;;;;;18.27;81.19;100111.59;5063869;28;20483;-53
2022/06/16 01:01:47;;;;;;;0.50;0.30;;;;;;;18.18;81.74;100114.84;5067642;28;20451;-52
2022/06/16 01:07:04;;;;;;;0.50;0.30;;;;;;;18.08;82.73;100118.19;5067563;28;20487;-53
2022/06/16 01:09:36;;;;;;;0.50;0.50;;;;;;;17.98;82.69;100116.09;5051286;28;20468;-52
2022/06/16 01:15:30;;;;;;;0.70;0.70;;;;;;;18.12;82.69;100122.44;5049684;28;20965;-52
2022/06/16 01:18:24;;;;;;;0.50;0.30;;;;;;;18.16;82.26;100122.16;5060718;28;20467;-52
2022/06/16 01:21:11;;;;;;;0.63;0.60;;;;;;;18.02;82.76;100128.41;5070428;28;20456;-52
2022/06/16 01:23:57;;;;;;;6.60;1.47;;;;;;;18.04;82.72;100131.84;5050821;28;20850;-53
2022/06/16 01:26:26;;;;;;;0.97;0.30;;;;;;;17.94;83.24;100124.44;5060909;28;20482;-54
2022/06/16 01:29:08;;;;;;;0.40;0.20;;;;;;;17.75;83.77;100132.78;5061437;28;20524;-52
2022/06/16 01:31:51;;;;;;;0.50;0.43;;;;;;;17.68;84.87;100129.59;5050094;28;20472;-52
2022/06/16 01:34:33;;;;;;;0.73;0.67;;;;;;;17.65;85.08;100126.19;5060423;28;21007;-56
2022/06/16 01:37:05;;;;;;;0.40;0.30;;;;;;;17.65;84.98;100126.19;5061296;28;20912;-52
2022/06/16 01:39:44;;;;;;;0.40;0.30;;;;;;;17.85;84.27;100125.03;5041692;28;20509;-51
2022/06/16 01:42:22;;;;;;;0.60;0.60;;;;;;;17.66;85.62;100130.59;5067319;28;20442;-52
2022/06/16 01:45:07;;;;;;;0.40;0.30;;;;;;;17.80;84.66;100122.59;5048471;28;20451;-52
2022/06/16 01:47:36;;;;;;;0.50;0.50;;;;;;;17.67;85.63;100140.41;5066831;28;20443;-53
2022/06/16 01:50:09;;;;;;;1.57;1.47;;;;;;;17.57;86.55;100133.88;5055551;28;20485;-53
2022/06/16 01:52:46;;;;;;;0.50;0.37;;;;;;;17.84;85.79;100136.75;5048805;28;21001;-53
2022/06/16 01:55:19;;;;;;;0.40;0.30;;;;;;;17.73;86.29;100145.44;5050310;28;20455;-52
2022/06/16 01:58:21;;;;;;;0.50;0.30;;;;;;;17.69;86.09;100139.41;5063343;28;20475;-52
2022/06/16 02:00:50;;;;;;;0.77;0.77;;;;;;;17.89;86.20;100142.69;5028709;28;20457;-52
2022/06/16 02:03:22;;;;;;;1.43;1.33;;;;;;;17.89;85.86;100143.56;5059928;28;20475;-53
2022/06/16 02:05:57;;;;;;;0.50;0.50;;;;;;;18.01;85.77;100140.13;5063864;28;20930;-53
2022/06/16 02:08:36;;;;;;;0.60;0.60;;;;;;;17.98;86.10;100143.00;5066953;28;20466;-52
2022/06/16 02:11:30;;;;;;;0.50;0.30;;;;;;;18.03;86.09;100143.56;5047478;28;20493;-52
2022/06/16 02:14:02;;;;;;;0.90;0.83;;;;;;;17.89;87.18;100145.38;5052700;28;20461;-52
2022/06/16 02:16:31;;;;;;;0.83;0.80;;;;;;;18.07;86.33;100144.25;5057743;28;20438;-53
2022/06/16 02:19:01;;;;;;;0.93;0.83;;;;;;;18.04;86.75;100153.38;5061666;28;20492;-54
2022/06/16 02:21:34;;;;;;;0.77;0.77;;;;;;;18.24;86.04;100149.47;5065273;28;20504;-54
2022/06/16 02:24:07;;;;;;;0.57;0.40;;;;;;;18.30;86.19;100159.84;5058176;28;20502;-52
2022/06/16 02:26:34;;;;;;;0.87;0.70;;;;;;;18.24;86.44;100152.16;5046369;28;20494;-52
2022/06/16 02:29:22;;;;;;;0.50;0.47;;;;;;;18.21;86.40;100151.47;5058543;28;20471;-52
2022/06/16 02:32:26;;;;;;;0.87;0.87;;;;;;;18.33;86.24;100148.00;5061778;28;20804;-52
2022/06/16 02:35:26;;;;;;;0.70;0.70;;;;;;;18.19;87.61;100150.69;5049322;28;20806;-52
2022/06/16 02:37:59;;;;;;;0.57;0.50;;;;;;;18.40;86.10;100148.50;5058311;28;21043;-52
2022/06/16 02:40:33;;;;;;;1.13;1.13;;;;;;;18.26;86.88;100155.59;5070947;28;20963;-52
2022/06/16 02:43:38;;;;;;;1.00;0.50;;;;;;;17.90;88.54;100147.97;5060870;28;20450;-52
2022/06/16 02:46:37;;;;;;;0.50;0.30;;;;;;;18.01;88.06;100152.69;5023124;28;20539;-53
2022/06/16 02:49:23;;;;;;;0.50;0.40;;;;;;;18.13;86.67;100151.94;5055565;28;21066;-52
2022/06/16 02:52:15;;;;;;;3.23;0.67;;;;;;;17.99;87.54;100151.94;5057559;28;20474;-53
2022/06/16 02:55:00;;;;;;;0.77;0.77;;;;;;;18.15;86.17;100154.53;5058544;28;20451;-53
2022/06/16 02:57:33;;;;;;;0.50;0.40;;;;;;;18.11;87.00;100153.88;5049989;28;20878;-52
2022/06/16 03:00:16;;;;;;;0.50;0.40;;;;;;;18.40;85.85;100148.50;5058992;28;20443;-52
2022/06/16 03:02:43;;;;;;;0.50;0.40;;;;;;;18.11;86.17;100153.88;5061738;28;20490;-53
2022/06/16 03:05:13;;;;;;;2.57;2.47;;;;;;;17.93;87.29;100142.41;5061281;28;20485;-52
2022/06/16 03:07:42;;;;;;;0.60;0.37;;;;;;;18.06;86.72;100140.69;5060983;28;20551;-52
2022/06/16 03:10:11;;;;;;;0.60;0.60;;;;;;;17.76;88.33;100139.88;5059540;28;20451;-52
2022/06/16 03:12:38;;;;;;;3.33;2.00;;;;;;;17.86;87.84;100143.75;5064407;28;20450;-52
2022/06/16 03:15:05;;;;;;;1.70;0.30;;;;;;;17.94;87.59;100148.66;5057804;28;20482;-52
2022/06/16 03:17:32;;;;;;;0.50;0.40;;;;;;;18.01;86.72;100160.78;5059231;28;20443;-53
2022/06/16 03:19:59;;;;;;;0.60;0.60;;;;;;;17.65;88.50;100175.44;5065770;28;20506;-52
2022/06/16 03:22:25;;;;;;;0.60;0.60;;;;;;;17.83;88.42;100175.34;5062640;28;20537;-54
2022/06/16 03:24:52;;;;;;;0.67;0.67;;;;;;;17.65;89.13;100175.44;5065547;28;20447;-52
2022/06/16 03:27:18;;;;;;;0.50;0.40;;;;;;;17.79;88.41;100173.78;5065020;28;20990;-53
2022/06/16 03:29:45;;;;;;;0.50;0.40;;;;;;;17.61;89.50;100183.78;5057539;28;20446;-52
2022/06/16 03:32:11;;;;;;;5.00;0.97;;;;;;;17.66;88.82;100174.47;5058730;28;20496;-52
2022/06/16 03:34:39;;;;;;;0.40;0.30;;;;;;;17.16;91.36;100169.41;5069556;28;20446;-52
2022/06/16 03:37:05;;;;;;;0.40;0.30;;;;;;;17.18;92.17;100173.72;5058671;28;21005;-52
2022/06/16 03:39:32;;;;;;;0.40;0.30;;;;;;;17.29;91.94;100181.19;5051522;28;20514;-52
2022/06/16 03:41:58;;;;;;;0.50;0.50;;;;;;;17.40;91.32;100184.06;5065698;28;20499;-52
2022/06/16 03:44:25;;;;;;;0.50;0.40;;;;;;;17.43;91.21;100189.31;5056553;28;20453;-53
2022/06/16 03:46:52;;;;;;;0.60;0.60;;;;;;;17.37;90.62;100189.63;5058840;28;20540;-53
2022/06/16 03:49:19;;;;;;;0.50;0.40;;;;;;;17.34;91.19;100180.91;5054484;28;20474;-52
2022/06/16 03:51:45;;;;;;;0.50;0.50;;;;;;;17.35;90.79;100180.81;5069205;28;20445;-51
2022/06/16 03:54:12;;;;;;;0.50;0.30;;;;;;;17.39;91.14;100185.03;5063449;28;20499;-53
2022/06/16 03:56:40;;;;;;;0.50;0.30;;;;;;;17.54;90.46;100187.78;5061559;28;20450;-52
2022/06/16 03:59:08;;;;;;;2.33;2.13;;;;;;;17.51;90.28;100185.28;5067368;28;20516;-53
2022/06/16 04:01:35;;;;;;;2.97;2.77;;;;;;;17.44;90.86;100187.47;5068814;28;20545;-51
2022/06/16 04:04:02;;;;;;;0.50;0.30;;;;;;;17.56;90.51;100194.81;5062830;28;20450;-52
2022/06/16 04:06:31;;;;;;;0.60;0.50;;;;;;;17.60;90.86;100190.13;5061333;28;20516;-52
2022/06/16 04:08:58;;;;;;;0.43;0.30;;;;;;;17.89;89.38;100181.22;5066322;28;20977;-52
2022/06/16 04:11:28;;;;;;;1.70;1.60;;;;;;;17.91;88.80;100186.50;5057818;28;20474;-52
2022/06/16 04:14:00;;;;;;;0.60;0.53;;;;;;;17.83;90.09;100195.03;5065593;28;20451;-52
2022/06/16 04:16:29;;;;;;;0.57;0.53;;;;;;;17.81;89.89;100199.63;5063919;28;20450;-52
2022/06/16 04:18:55;;;;;;;0.60;0.53;;;;;;;17.84;89.92;100196.75;5066410;28;20470;-52
2022/06/16 04:21:22;;;;;;;0.40;0.30;;;;;;;18.00;89.94;100197.56;5059824;28;20442;-53
2022/06/16 04:23:49;;;;;;;0.50;0.40;;;;;;;18.17;88.58;100192.97;5066645;28;20507;-52
2022/06/16 04:26:16;;;;;;;1.10;0.70;;;;;;;18.44;88.46;100203.84;5061269;28;20534;-52
2022/06/16 04:28:43;;;;;;;0.40;0.30;;;;;;;18.85;86.79;100212.03;5063728;28;20500;-51
2022/06/16 04:31:09;;;;;;;0.70;0.70;;;;;;;19.54;83.04;100211.09;5067861;28;20459;-52
2022/06/16 04:33:37;;;;;;;0.47;0.30;;;;;;;20.20;79.92;100218.28;5066939;28;20797;-54
2022/06/16 04:36:04;;;;;;;0.40;0.30;;;;;;;20.74;77.73;100220.78;5061393;28;20523;-52
2022/06/16 04:38:31;;;;;;;1.13;1.13;;;;;;;21.09;76.05;100218.22;5063013;28;20470;-52
2022/06/16 04:40:58;;;;;;;0.80;0.80;;;;;;;21.59;72.72;100228.00;5067477;28;21005;-53
2022/06/16 04:43:28;;;;;;;8.03;1.27;;;;;;;21.76;71.80;100223.16;5066667;28;20449;-52
2022/06/16 04:45:56;;;;;;;0.50;0.40;;;;;;;22.18;69.14;100233.41;5061282;28;20450;-52
2022/06/16 04:48:23;;;;;;;0.57;0.50;;;;;;;22.23;69.43;100230.38;5061867;28;20470;-53
2022/06/16 04:50:49;;;;;;;2.20;1.37;;;;;;;22.34;68.14;100238.53;5068119;28;20485;-55
2022/06/16 04:53:16;;;;;;;0.67;0.60;;;;;;;22.58;68.84;100233.00;5067317;28;20866;-52
2022/06/16 04:55:42;;;;;;;0.53;0.50;;;;;;;22.62;67.95;100226.38;5049807;28;20458;-52
2022/06/16 04:58:09;;;;;;;0.60;0.50;;;;;;;22.83;66.86;100241.94;5062451;28;20505;-54
2022/06/16 05:00:36;;;;;;;0.90;0.77;;;;;;;23.37;65.59;100230.28;5067748;28;20450;-53
2022/06/16 05:03:08;;;;;;;0.50;0.40;;;;;;;23.49;64.41;100234.69;5067077;28;20462;-54
2022/06/16 05:05:35;;;;;;;1.43;0.87;;;;;;;23.03;66.25;100241.19;5061607;28;20483;-54
2022/06/16 05:08:02;;;;;;;0.60;0.40;;;;;;;23.19;65.76;100240.81;5070900;28;20547;-53
2022/06/16 05:10:28;;;;;;;5.33;0.90;;;;;;;23.24;64.37;100238.56;5048148;28;20939;-54
2022/06/16 05:12:55;;;;;;;1.80;1.70;;;;;;;23.24;64.79;100238.56;5042663;28;20547;-54
2022/06/16 05:15:22;;;;;;;1.57;0.50;;;;;;;23.89;62.01;100241.25;5065486;28;20830;-54
2022/06/16 05:17:48;;;;;;;0.50;0.43;;;;;;;23.50;62.86;100248.13;5061918;28;20516;-54
2022/06/16 05:20:15;;;;;;;0.50;0.37;;;;;;;23.32;62.86;100255.94;5065771;28;20497;-54
2022/06/16 05:22:41;;;;;;;0.60;0.60;;;;;;;22.65;65.54;100247.81;5063257;28;20446;-54
2022/06/16 05:25:08;;;;;;;2.00;0.40;;;;;;;22.51;65.96;100248.03;5055687;28;20459;-54
2022/06/16 05:27:35;;;;;;;0.97;0.87;;;;;;;22.62;66.47;100250.75;5067278;28;20490;-54
2022/06/16 05:30:03;;;;;;;1.83;1.73;;;;;;;23.09;64.34;100248.81;5063066;28;20935;-54
2022/06/16 05:32:30;;;;;;;0.53;0.53;;;;;;;24.13;61.24;100261.88;5068372;28;20806;-54
2022/06/16 05:34:56;;;;;;;3.03;0.50;;;;;;;24.04;61.39;100271.66;5064097;28;20484;-54
2022/06/16 05:37:23;;;;;;;1.53;1.43;;;;;;;24.17;59.92;100280.50;5060600;28;21009;-54
2022/06/16 05:39:50;;;;;;;0.90;0.60;;;;;;;24.21;58.99;100278.38;5063549;28;20486;-55
2022/06/16 05:42:17;;;;;;;13.13;3.20;;;;;;;24.18;59.32;100282.22;5057340;28;20457;-54
2022/06/16 05:44:44;;;;;;;0.70;0.60;;;;;;;24.63;58.07;100286.56;5063086;28;20506;-55
2022/06/16 05:47:11;;;;;;;1.87;1.10;;;;;;;24.48;58.53;100295.03;5066727;28;20995;-55
2022/06/16 05:49:42;;;;;;;0.60;0.60;;;;;;;24.95;57.43;100295.47;5063933;28;20520;-55
2022/06/16 05:52:11;;;;;;;0.60;0.50;;;;;;;25.10;56.84;100294.16;5058987;28;20485;-55
2022/06/16 05:54:38;;;;;;;0.50;0.50;;;;;;;25.42;55.11;100293.09;5061678;28;20462;-54
2022/06/16 05:57:07;;;;;;;0.50;0.47;;;;;;;25.20;55.25;100302.31;5056321;28;20499;-54
2022/06/16 05:59:34;;;;;;;0.40;0.30;;;;;;;24.97;56.45;100303.50;5049955;28;20484;-54
2022/06/16 06:02:02;;;;;;;0.50;0.40;;;;;;;24.45;57.37;100306.19;5049936;28;20460;-54
2022/06/16 06:04:30;;;;;;;0.87;0.83;;;;;;;24.31;58.06;100308.38;5058076;28;20454;-54
2022/06/16 06:06:57;;;;;;;0.90;0.90;;;;;;;24.48;57.78;100313.22;5063866;28;20471;-54
2022/06/16 06:17:46;;;;;;;0.50;0.40;;;;;;;24.85;56.63;100342.66;5052023;28;20477;-54
2022/06/16 06:20:13;;;;;;;0.67;0.67;;;;;;;25.07;55.61;100346.09;5063501;28;20458;-55
2022/06/16 06:22:40;;;;;;;1.40;1.40;;;;;;;24.37;57.23;100344.03;5053647;28;20444;-54
2022/06/16 06:25:08;;;;;;;0.53;0.50;;;;;;;24.69;56.37;100341.28;5047434;28;20488;-54
2022/06/16 06:27:46;;;;;;;0.63;0.57;;;;;;;25.03;56.23;100347.38;5044158;28;20515;-54
2022/06/16 06:30:17;;;;;;;0.83;0.83;;;;;;;25.38;54.60;100354.28;5062972;28;20468;-54
2022/06/16 06:32:44;;;;;;;0.50;0.30;;;;;;;25.09;55.62;100351.41;5041495;28;20448;-54
2022/06/16 06:35:12;;;;;;;0.60;0.60;;;;;;;25.46;53.96;100348.13;5055776;28;20450;-54
2022/06/16 06:37:39;;;;;;;0.50;0.40;;;;;;;25.30;54.47;100354.09;5064277;28;20476;-54
2022/06/16 06:40:07;;;;;;;0.50;0.50;;;;;;;25.74;53.21;100354.69;5064555;28;20446;-54
2022/06/16 06:42:33;;;;;;;1.37;1.37;;;;;;;25.28;54.13;100350.63;5042283;28;21000;-54
2022/06/16 06:45:02;;;;;;;3.53;1.33;;;;;;;24.72;56.06;100359.16;5045324;28;20451;-54
2022/06/16 06:47:30;;;;;;;0.50;0.37;;;;;;;24.55;56.83;100355.19;5064305;28;21032;-54
2022/06/16 06:49:57;;;;;;;0.50;0.50;;;;;;;24.48;57.26;100354.84;5056579;28;20458;-54
2022/06/16 06:52:24;;;;;;;6.63;0.70;;;;;;;24.39;57.40;100366.50;5064887;28;20453;-54
2022/06/16 06:54:51;;;;;;;0.50;0.40;;;;;;;24.45;56.82;100365.97;5058324;28;20574;-54
2022/06/16 06:57:27;;;;;;;1.33;0.80;;;;;;;24.51;57.04;100368.16;5056577;28;20446;-55
2022/06/16 06:59:54;;;;;;;0.50;0.40;;;;;;;24.67;55.92;100367.75;5056428;28;20871;-56
2022/06/16 07:02:21;;;;;;;0.50;0.47;;;;;;;24.60;56.55;100365.66;5068619;28;20454;-56
2022/06/16 07:04:48;;;;;;;1.67;0.50;;;;;;;25.26;54.10;100366.25;5050755;28;20526;-56
2022/06/16 07:07:18;;;;;;;0.50;0.40;;;;;;;25.36;54.84;100375.31;5064387;28;20485;-56
2022/06/16 07:09:45;;;;;;;1.03;1.03;;;;;;;25.10;54.48;100369.47;5047405;28;20454;-56
2022/06/16 07:12:13;;;;;;;0.60;0.60;;;;;;;25.75;53.63;100372.75;5056663;28;20442;-56
2022/06/16 07:14:46;;;;;;;0.70;0.60;;;;;;;25.86;53.19;100373.50;5050757;28;20757;-56
2022/06/16 07:17:15;;;;;;;0.67;0.67;;;;;;;25.77;53.06;100387.09;5058911;28;20477;-56
2022/06/16 07:19:41;;;;;;;1.17;1.17;;;;;;;25.63;52.72;100380.13;5065607;28;20735;-57
2022/06/16 07:22:08;;;;;;;0.87;0.50;;;;;;;25.41;53.66;100400.25;5046086;28;20957;-57
2022/06/16 07:24:35;;;;;;;1.47;0.97;;;;;;;26.09;52.43;100401.38;5044698;28;20448;-56
2022/06/16 07:27:03;;;;;;;0.70;0.70;;;;;;;25.59;53.01;100409.50;5045399;28;20483;-56
2022/06/16 07:29:30;;;;;;;0.50;0.40;;;;;;;25.63;53.41;100410.09;5056054;28;20474;-56
2022/06/16 07:32:04;;;;;;;3.60;1.73;;;;;;;25.24;53.22;100414.50;5065677;28;20473;-56
2022/06/16 07:34:31;;;;;;;6.73;1.73;;;;;;;25.33;53.88;100405.50;5051445;28;20541;-56
2022/06/16 07:36:57;;;;;;;0.50;0.40;;;;;;;25.49;53.46;100413.19;5046463;28;20495;-56
2022/06/16 07:39:25;;;;;;;13.90;0.90;;;;;;;25.63;53.29;100421.88;5056655;28;20477;-56
2022/06/16 07:41:52;;;;;;;0.60;0.47;;;;;;;25.37;53.52;100409.72;5047409;28;20452;-56
2022/06/16 07:44:19;;;;;;;1.53;1.43;;;;;;;25.85;52.01;100409.06;5065271;28;20819;-57
2022/06/16 07:46:47;;;;;;;0.70;0.60;;;;;;;25.89;52.06;100407.78;5059924;28;20454;-56
2022/06/16 07:49:21;;;;;;;0.50;0.30;;;;;;;25.99;51.79;100420.44;5065009;28;20478;-56
2022/06/16 07:51:47;;;;;;;0.50;0.40;;;;;;;26.04;49.55;100414.56;5060746;28;20460;-56
2022/06/16 07:54:14;;;;;;;0.90;0.90;;;;;;;26.42;49.81;100413.78;5042272;28;20464;-56
2022/06/16 07:57:01;;;;;;;0.73;0.70;;;;;;;26.48;49.88;100420.53;5054700;28;20452;-57
2022/06/16 07:59:28;;;;;;;0.60;0.53;;;;;;;26.39;49.26;100422.25;5042786;28;20565;-56
2022/06/16 08:01:54;;;;;;;0.67;0.50;;;;;;;26.76;48.71;100416.09;5062429;28;20457;-56
2022/06/16 08:04:21;;;;;;;0.60;0.50;;;;;;;26.42;46.48;100413.78;5061206;28;20537;-56
2022/06/16 08:06:48;;;;;;;0.70;0.50;;;;;;;26.52;48.23;100417.38;5065032;28;20457;-56
2022/06/16 08:09:15;;;;;;;0.50;0.30;;;;;;;27.06;47.48;100420.53;5056598;28;20516;-56
2022/06/16 08:14:27;;;;;;;0.50;0.40;;;;;;;27.48;45.61;100409.22;5061570;28;20462;-56
2022/06/16 08:16:54;;;;;;;0.60;0.60;;;;;;;27.76;44.91;100421.91;5036644;28;20502;-56
2022/06/16 08:19:21;;;;;;;0.57;0.50;;;;;;;28.26;43.29;100418.75;5046721;28;20487;-56
2022/06/16 08:21:49;;;;;;;0.50;0.40;;;;;;;28.01;44.36;100426.66;5040530;28;20870;-56
2022/06/16 08:24:16;;;;;;;0.97;0.60;;;;;;;28.11;43.74;100425.75;5043059;28;20483;-56
2022/06/16 08:26:43;;;;;;;0.50;0.30;;;;;;;27.85;44.12;100429.22;5062069;28;20457;-56
2022/06/16 08:29:12;;;;;;;0.50;0.40;;;;;;;27.80;44.54;100436.13;5065442;28;20524;-56
2022/06/16 08:31:39;;;;;;;0.50;0.43;;;;;;;28.24;43.46;100446.25;5033110;28;20456;-55
2022/06/16 08:34:06;;;;;;;11.93;0.60;;;;;;;27.66;43.64;100440.22;5058402;28;20459;-55
2022/06/16 08:36:33;;;;;;;0.97;0.97;;;;;;;27.56;44.35;100429.31;5067473;28;20454;-55
2022/06/16 08:39:00;;;;;;;0.70;0.60;;;;;;;27.80;43.49;100441.59;5048968;28;21048;-55
2022/06/16 08:41:36;;;;;;;0.83;0.83;;;;;;;28.10;42.56;100440.41;5072356;28;20483;-56
2022/06/16 08:44:27;;;;;;;0.53;0.53;;;;;;;28.11;43.37;100444.91;5049251;28;20453;-56
2022/06/16 08:47:05;;;;;;;0.50;0.40;;;;;;;28.43;42.30;100449.91;5047724;28;20557;-56
2022/06/16 08:49:39;;;;;;;0.50;0.30;;;;;;;28.55;42.49;100446.78;5068461;28;20508;-56
2022/06/16 08:52:23;;;;;;;0.97;0.80;;;;;;;28.29;42.41;100440.34;5046703;28;20457;-56
2022/06/16 08:55:02;;;;;;;0.53;0.40;;;;;;;28.31;41.94;100449.25;5065845;28;20449;-56
2022/06/16 08:57:32;;;;;;;1.03;1.03;;;;;;;28.86;41.35;100449.09;5058352;28;20818;-56
2022/06/16 09:00:09;;;;;;;0.50;0.40;;;;;;;28.81;41.73;100449.59;5071133;28;20860;-56
2022/06/16 09:02:56;;;;;;;0.50;0.47;;;;;;;28.96;41.21;100444.44;5058817;28;20808;-56
2022/06/16 09:05:37;;;;;;;2.57;0.97;;;;;;;29.13;40.86;100453.63;5067681;28;20447;-56
2022/06/16 09:08:25;;;;;;;0.53;0.40;;;;;;;29.09;40.46;100444.03;5067673;28;20463;-56
2022/06/16 09:11:10;;;;;;;0.50;0.40;;;;;;;29.06;39.92;100442.47;5061524;28;20450;-56
2022/06/16 09:13:48;;;;;;;1.20;1.10;;;;;;;29.08;40.20;100448.66;5048503;28;20450;-56
2022/06/16 09:16:26;;;;;;;0.73;0.60;;;;;;;28.88;39.96;100434.28;5069466;28;20442;-56
2022/06/16 09:19:01;;;;;;;0.60;0.53;;;;;;;29.06;38.73;100453.44;5044203;28;20464;-56
2022/06/16 09:21:56;;;;;;;0.63;0.40;;;;;;;29.24;35.29;100447.06;5056243;28;20453;-56
2022/06/16 09:24:30;;;;;;;0.50;0.30;;;;;;;28.97;34.83;100440.69;5059019;28;20443;-55
2022/06/16 09:27:22;;;;;;;0.70;0.63;;;;;;;28.44;35.98;100455.22;5064348;28;20447;-56
2022/06/16 09:30:11;;;;;;;0.80;0.80;;;;;;;28.49;37.88;100465.66;5047657;28;20812;-56
2022/06/16 09:32:46;;;;;;;2.10;0.77;;;;;;;28.38;38.36;100474.13;5059737;28;20476;-56
2022/06/16 09:35:19;;;;;;;0.40;0.30;;;;;;;28.75;37.52;100468.50;5062296;28;20954;-56
2022/06/16 09:37:53;;;;;;;3.13;0.80;;;;;;;28.32;37.49;100468.22;5066742;28;20529;-55
2022/06/16 09:40:26;;;;;;;0.40;0.20;;;;;;;28.27;38.48;100469.72;5067032;28;20503;-56
2022/06/16 09:43:02;;;;;;;0.50;0.33;;;;;;;28.50;38.44;100473.72;5065977;28;20443;-56
2022/06/16 09:45:38;;;;;;;0.70;0.60;;;;;;;28.44;36.50;100477.09;5051112;28;20458;-56
2022/06/16 09:48:39;;;;;;;0.50;0.40;;;;;;;28.46;36.60;100474.19;5062402;28;21019;-56
2022/06/16 09:51:14;;;;;;;0.67;0.67;;;;;;;28.70;37.24;100479.94;5049271;28;20449;-56
2022/06/16 09:53:49;;;;;;;0.63;0.60;;;;;;;28.77;38.98;100480.16;5059886;28;20985;-56
2022/06/16 09:56:24;;;;;;;0.60;0.50;;;;;;;28.89;39.16;100477.06;5062812;28;20843;-56
2022/06/16 09:58:55;;;;;;;0.50;0.33;;;;;;;28.93;38.33;100479.50;5066248;28;20886;-56
2022/06/16 10:01:25;;;;;;;0.70;0.40;;;;;;;29.30;38.00;100490.22;5065847;28;20474;-56
2022/06/16 10:04:03;;;;;;;16.33;1.10;;;;;;;28.46;37.84;100490.59;5039693;28;20443;-55
2022/06/16 10:07:08;;;;;;;1.13;0.93;;;;;;;29.00;39.02;100503.31;5066574;28;20450;-56
2022/06/16 10:10:09;;;;;;;0.73;0.70;;;;;;;29.18;35.70;100515.13;5057962;28;20551;-56
2022/06/16 10:12:49;;;;;;;0.50;0.30;;;;;;;29.13;37.89;100506.53;5065568;28;20453;-56
2022/06/16 10:15:41;;;;;;;1.07;0.53;;;;;;;29.11;38.58;100511.31;5048971;28;20461;-56
2022/06/16 10:18:10;;;;;;;0.50;0.40;;;;;;;29.62;36.71;100519.78;5059084;28;20486;-56
2022/06/16 10:20:38;;;;;;;0.97;0.83;;;;;;;29.53;36.82;100526.22;5061405;28;20500;-56
2022/06/16 10:23:20;;;;;;;0.50;0.37;;;;;;;29.19;38.00;100533.31;5066335;28;20454;-56
2022/06/16 10:25:54;;;;;;;0.50;0.40;;;;;;;28.90;37.61;100522.56;5066163;28;20445;-56
2022/06/16 10:28:35;;;;;;;0.57;0.57;;;;;;;29.13;36.82;100533.91;5061361;28;20517;-55
2022/06/16 10:31:05;;;;;;;0.50;0.40;;;;;;;29.11;38.29;100530.47;5059464;28;20495;-56
2022/06/16 10:33:34;;;;;;;1.87;1.77;;;;;;;29.14;38.35;100532.03;5062266;28;20454;-56
2022/06/16 10:36:23;;;;;;;0.87;0.87;;;;;;;29.46;35.13;100526.84;5066531;28;20454;-55
2022/06/16 10:39:19;;;;;;;0.57;0.40;;;;;;;28.96;35.31;100532.03;5065867;28;20496;-55
2022/06/16 10:41:59;;;;;;;3.43;1.10;;;;;;;29.31;36.20;100536.63;5064382;28;20496;-55
2022/06/16 10:44:28;;;;;;;0.50;0.43;;;;;;;29.40;35.62;100535.69;5065951;28;20496;-55
2022/06/16 10:46:59;;;;;;;7.13;1.53;;;;;;;29.51;30.15;100534.59;5066300;28;20466;-55
2022/06/16 10:49:30;;;;;;;0.70;0.43;;;;;;;29.42;31.63;100536.38;5060158;28;20567;-55
2022/06/16 10:52:21;;;;;;;0.40;0.30;;;;;;;29.50;32.85;100549.31;5059347;28;20529;-55
2022/06/16 10:55:11;;;;;;;1.07;0.97;;;;;;;29.94;33.30;100547.38;5059547;28;20447;-55
2022/06/16 10:57:45;;;;;;;0.57;0.57;;;;;;;30.05;28.78;100554.50;5042633;28;20997;-55
2022/06/16 11:00:17;;;;;;;37.10;0.70;;;;;;;29.94;31.19;100549.28;5023732;23;20642;-49
2022/06/16 11:03:08;;;;;;;0.50;0.40;;;;;;;30.02;32.40;100554.81;5006263;28;21005;-49
2022/06/16 11:05:51;;;;;;;0.50;0.40;;;;;;;30.07;32.11;100547.84;4993084;28;20481;-49
2022/06/16 11:08:20;;;;;;;1.70;0.63;;;;;;;30.29;31.18;100551.91;5008389;28;21071;-49
2022/06/16 11:11:09;;;;;;;1.10;0.90;;;;;;;30.01;31.85;100558.53;5026057;28;20454;-49
2022/06/16 11:13:43;;;;;;;3.83;2.53;;;;;;;30.00;33.26;100546.72;4999997;28;20452;-49
2022/06/16 11:16:22;;;;;;;0.50;0.30;;;;;;;30.13;32.54;100546.31;5010987;28;20449;-49
2022/06/16 11:18:53;;;;;;;17.20;1.67;;;;;;;29.74;33.76;100552.25;5010153;28;20495;-50
2022/06/16 11:21:24;;;;;;;0.77;0.77;;;;;;;29.20;35.52;100547.84;4999168;28;20448;-49
2022/06/16 11:23:54;;;;;;;0.50;0.30;;;;;;;29.95;34.20;100553.72;5001204;28;20508;-48
2022/06/16 11:26:27;;;;;;;6.43;1.77;;;;;;;30.14;33.93;100548.03;5005868;28;20445;-49
2022/06/16 11:29:01;;;;;;;0.50;0.30;;;;;;;29.37;35.47;100546.09;5005664;28;20967;-48
2022/06/16 11:32:00;;;;;;;0.80;0.80;;;;;;;29.78;34.60;100555.50;5004014;28;20457;-49
2022/06/16 11:34:28;;;;;;;0.53;0.53;;;;;;;29.37;35.17;100557.06;5006139;28;20997;-48
2022/06/16 11:37:11;;;;;;;0.60;0.60;;;;;;;29.44;34.98;100563.59;5005023;28;20448;-49
2022/06/16 11:40:11;;;;;;;1.03;1.03;;;;;;;29.64;34.41;100550.63;5004140;28;20473;-49
2022/06/16 11:42:52;;;;;;;0.57;0.57;;;;;;;29.77;34.78;100560.13;5005835;28;20449;-48
2022/06/16 11:45:49;;;;;;;0.50;0.30;;;;;;;29.62;34.37;100559.00;5006822;28;20448;-49
2022/06/16 11:48:19;;;;;;;0.50;0.30;;;;;;;29.79;32.70;100558.09;5011998;28;20533;-48
2022/06/16 11:50:50;;;;;;;1.70;1.07;;;;;;;29.91;32.47;100557.81;4998960;28;20452;-48
2022/06/16 11:53:38;;;;;;;0.70;0.70;;;;;;;29.89;32.08;100554.41;4999164;28;20469;-48
2022/06/16 11:56:53;;;;;;;0.60;0.50;;;;;;;29.92;32.28;100556.81;5002412;28;20607;-48
2022/06/16 11:59:27;;;;;;;0.50;0.30;;;;;;;29.65;32.76;100542.25;4980499;28;20524;-48
2022/06/16 12:02:02;;;;;;;0.63;0.47;;;;;;;29.73;31.41;100542.28;4997412;28;20448;-49
2022/06/16 12:04:55;;;;;;;0.50;0.30;;;;;;;29.90;31.45;100531.44;4999408;28;20445;-48
2022/06/16 12:07:41;;;;;;;0.50;0.30;;;;;;;29.67;32.17;100536.59;5001670;28;20445;-49
2022/06/16 12:10:20;;;;;;;0.50;0.30;;;;;;;29.77;31.16;100535.47;5008938;28;20537;-49